createdAt,value
2019-03-26T00:01:06.440Z,3.75
2019-03-26T00:03:36.867Z,3.25
2019-03-26T00:06:08.709Z,3.40
2019-03-26T00:08:39.090Z,3.10
2019-03-26T00:11:10.608Z,3.12
2019-03-26T00:13:41.095Z,2.50
2019-03-26T00:16:11.560Z,2.80
2019-03-26T00:18:42.114Z,2.45
2019-03-26T00:21:12.552Z,3.65
2019-03-26T00:23:42.920Z,2.47
2019-03-26T00:26:13.328Z,4.05
2019-03-26T00:28:43.729Z,5.50
2019-03-26T00:31:14.216Z,3.40
2019-03-26T00:33:44.587Z,2.00
2019-03-26T00:36:14.982Z,4.00
2019-03-26T00:38:45.816Z,3.98
2019-03-26T00:41:16.735Z,2.02
2019-03-26T00:43:48.265Z,3.17
2019-03-26T00:46:18.945Z,2.42
2019-03-26T00:48:49.494Z,2.10
2019-03-26T00:51:19.971Z,2.80
2019-03-26T00:53:50.341Z,4.87
2019-03-26T00:56:20.722Z,2.40
2019-03-26T00:58:51.073Z,1.85
2019-03-26T01:01:21.392Z,1.92
2019-03-26T01:03:54.832Z,2.05
2019-03-26T01:06:24.317Z,2.22
2019-03-26T01:08:54.992Z,2.08
2019-03-26T01:11:25.434Z,1.45
2019-03-26T01:13:55.908Z,1.87
2019-03-26T01:16:27.018Z,2.60
2019-03-26T01:18:57.695Z,1.62
2019-03-26T01:21:28.195Z,1.65
2019-03-26T01:23:58.607Z,1.40
2019-03-26T01:26:28.943Z,1.40
2019-03-26T01:28:59.355Z,1.57
2019-03-26T01:31:30.034Z,1.55
2019-03-26T01:34:01.445Z,1.60
2019-03-26T01:36:31.922Z,3.37
2019-03-26T01:39:02.720Z,2.02
2019-03-26T01:41:34.204Z,1.30
2019-03-26T01:44:04.762Z,1.95
2019-03-26T01:46:35.228Z,1.30
2019-03-26T01:49:06.609Z,1.52
2019-03-26T01:51:37.031Z,2.40
2019-03-26T01:54:07.448Z,2.37
2019-03-26T01:56:38.276Z,2.25
2019-03-26T01:59:08.667Z,1.72
2019-03-26T02:01:39.125Z,1.90
2019-03-26T02:04:09.630Z,1.27
2019-03-26T02:06:40.158Z,1.10
2019-03-26T02:09:10.943Z,1.82
2019-03-26T02:11:41.447Z,1.25
2019-03-26T02:14:11.857Z,1.57
2019-03-26T02:16:42.601Z,1.45
2019-03-26T02:19:13.035Z,1.47
2019-03-26T02:21:44.154Z,3.37
2019-03-26T02:24:14.510Z,2.02
2019-03-26T02:26:44.912Z,0.90
2019-03-26T02:29:15.309Z,1.07
2019-03-26T02:31:46.100Z,1.45
2019-03-26T02:34:16.630Z,1.00
2019-03-26T02:36:46.991Z,1.30
2019-03-26T02:39:17.527Z,1.15
2019-03-26T02:41:48.138Z,1.00
2019-03-26T02:44:18.919Z,1.17
2019-03-26T02:46:49.253Z,1.47
2019-03-26T02:49:19.571Z,0.78
2019-03-26T02:51:49.862Z,1.57
2019-03-26T02:54:20.230Z,1.30
2019-03-26T02:56:50.691Z,1.07
2019-03-26T02:59:22.145Z,0.95
2019-03-26T03:01:53.601Z,1.05
2019-03-26T03:04:24.060Z,1.37
2019-03-26T03:06:54.373Z,1.25
2019-03-26T03:09:24.729Z,1.55
2019-03-26T03:11:55.115Z,1.05
2019-03-26T03:14:25.502Z,0.93
2019-03-26T03:16:55.917Z,0.70
2019-03-26T03:19:26.344Z,1.00
2019-03-26T03:21:56.626Z,1.25
2019-03-26T03:24:27.042Z,0.80
2019-03-26T03:26:57.626Z,0.70
2019-03-26T03:29:28.067Z,1.07
2019-03-26T03:31:58.766Z,1.15
2019-03-26T03:34:29.050Z,0.93
2019-03-26T03:36:59.403Z,1.12
2019-03-26T03:39:29.715Z,0.85
2019-03-26T03:42:00.403Z,0.98
2019-03-26T03:44:30.756Z,0.60
2019-03-26T03:47:02.923Z,1.72
2019-03-26T03:49:39.087Z,0.98
2019-03-26T03:52:11.709Z,0.90
2019-03-26T03:54:44.578Z,1.20
2019-03-26T03:57:17.801Z,1.35
2019-03-26T03:59:48.843Z,1.90
2019-03-26T04:02:19.240Z,1.82
2019-03-26T04:04:49.621Z,0.98
2019-03-26T04:07:20.106Z,1.30
2019-03-26T04:09:50.435Z,1.00
2019-03-26T04:12:20.835Z,1.72
2019-03-26T04:14:51.555Z,0.82
2019-03-26T04:17:21.861Z,1.05
2019-03-26T04:19:52.235Z,1.35
2019-03-26T04:22:22.662Z,0.93
2019-03-26T04:24:53.549Z,1.65
2019-03-26T04:27:24.210Z,0.98
2019-03-26T04:29:54.664Z,1.95
2019-03-26T04:32:25.326Z,1.15
2019-03-26T04:34:55.709Z,0.95
2019-03-26T04:37:27.079Z,0.50
2019-03-26T04:39:57.766Z,0.90
2019-03-26T04:42:28.254Z,1.30
2019-03-26T04:44:58.624Z,0.80
2019-03-26T04:47:29.043Z,1.25
2019-03-26T04:49:59.573Z,0.90
2019-03-26T04:52:30.205Z,1.20
2019-03-26T04:55:00.533Z,0.75
2019-03-26T04:57:30.997Z,1.05
2019-03-26T05:00:01.647Z,0.95
2019-03-26T05:02:33.004Z,0.45
2019-03-26T05:05:03.520Z,1.07
2019-03-26T05:07:33.967Z,0.82
2019-03-26T05:10:04.681Z,0.82
2019-03-26T05:12:35.026Z,1.22
2019-03-26T05:15:05.917Z,0.98
2019-03-26T05:17:36.692Z,0.47
2019-03-26T05:20:08.195Z,1.40
2019-03-26T05:22:39.478Z,1.32
2019-03-26T05:25:10.220Z,0.90
2019-03-26T05:27:45.706Z,1.72
2019-03-26T05:30:13.529Z,1.47
2019-03-26T05:32:43.896Z,1.12
2019-03-26T05:35:14.743Z,1.12
2019-03-26T05:37:45.076Z,1.47
2019-03-26T05:40:15.914Z,1.25
2019-03-26T05:42:46.344Z,1.40
2019-03-26T05:45:17.127Z,0.90
2019-03-26T05:47:47.638Z,1.22
2019-03-26T05:50:18.316Z,0.80
2019-03-26T05:52:48.859Z,0.88
2019-03-26T05:55:19.957Z,1.35
2019-03-26T05:57:51.262Z,0.78
2019-03-26T06:00:26.749Z,0.93
2019-03-26T06:02:57.294Z,0.90
2019-03-26T06:05:27.723Z,1.10
2019-03-26T06:07:58.136Z,1.05
2019-03-26T06:10:28.518Z,1.02
2019-03-26T06:12:59.563Z,1.00
2019-03-26T06:15:29.966Z,1.35
2019-03-26T06:18:00.316Z,1.35
2019-03-26T06:20:30.636Z,1.20
2019-03-26T06:23:01.435Z,0.88
2019-03-26T06:25:31.912Z,1.37
2019-03-26T06:28:02.648Z,1.82
2019-03-26T06:30:33.081Z,1.02
2019-03-26T06:33:04.103Z,0.80
2019-03-26T06:35:34.740Z,0.68
2019-03-26T06:38:06.258Z,1.35
2019-03-26T06:40:37.271Z,1.40
2019-03-26T06:43:07.671Z,0.80
2019-03-26T06:45:38.253Z,0.90
2019-03-26T06:48:08.682Z,1.42
2019-03-26T06:50:40.240Z,1.57
2019-03-26T06:53:10.962Z,1.70
2019-03-26T06:55:41.508Z,1.20
2019-03-26T06:58:12.046Z,1.87
2019-03-26T07:00:43.089Z,1.55
2019-03-26T07:03:13.529Z,2.00
2019-03-26T07:05:43.939Z,1.87
2019-03-26T07:08:14.438Z,1.50
2019-03-26T07:10:44.766Z,0.90
2019-03-26T07:13:15.459Z,1.12
2019-03-26T07:15:45.793Z,1.35
2019-03-26T07:18:16.374Z,1.40
2019-03-26T07:20:46.833Z,1.17
2019-03-26T07:23:17.423Z,0.82
2019-03-26T07:25:47.910Z,1.10
2019-03-26T07:28:19.533Z,1.07
2019-03-26T07:30:50.340Z,0.80
2019-03-26T07:33:20.834Z,1.05
2019-03-26T07:35:51.329Z,0.75
2019-03-26T07:38:21.753Z,1.62
2019-03-26T07:40:53.168Z,1.55
2019-03-26T07:43:23.670Z,0.95
2019-03-26T07:45:54.103Z,1.37
2019-03-26T07:48:24.956Z,1.40
2019-03-26T07:50:55.399Z,1.77
2019-03-26T07:53:26.055Z,1.02
2019-03-26T07:55:56.505Z,1.20
2019-03-26T07:58:26.965Z,1.25
2019-03-26T08:00:57.812Z,0.28
2019-03-26T08:03:28.361Z,1.10
2019-03-26T08:05:58.714Z,1.27
2019-03-26T08:08:29.139Z,1.82
2019-03-26T08:10:59.431Z,1.37
2019-03-26T08:13:29.950Z,2.02
2019-03-26T08:16:00.858Z,1.77
2019-03-26T08:18:31.358Z,1.82
2019-03-26T08:21:01.704Z,1.87
2019-03-26T08:23:32.556Z,0.98
2019-03-26T08:26:02.983Z,1.40
2019-03-26T08:28:33.365Z,1.55
2019-03-26T08:31:03.870Z,1.42
2019-03-26T08:33:34.303Z,0.88
2019-03-26T08:36:05.582Z,1.25
2019-03-26T08:38:36.065Z,0.78
2019-03-26T08:41:06.541Z,1.45
2019-03-26T08:43:36.994Z,0.60
2019-03-26T08:46:07.598Z,0.62
2019-03-26T08:48:37.992Z,0.80
2019-03-26T08:51:08.885Z,1.45
2019-03-26T08:53:39.327Z,0.60
2019-03-26T08:56:11.027Z,0.82
2019-03-26T08:58:41.882Z,1.57
2019-03-26T09:01:12.289Z,1.30
2019-03-26T09:03:42.579Z,1.00
2019-03-26T09:06:13.149Z,0.95
2019-03-26T09:08:43.580Z,0.80
2019-03-26T09:11:13.984Z,0.75
2019-03-26T09:13:44.380Z,1.45
2019-03-26T09:16:14.805Z,1.15
2019-03-26T09:18:45.553Z,1.02
2019-03-26T09:21:15.983Z,1.00
2019-03-26T09:23:46.386Z,1.22
2019-03-26T09:26:17.011Z,1.15
2019-03-26T09:28:48.011Z,0.60
2019-03-26T09:31:18.639Z,0.98
2019-03-26T09:33:49.099Z,0.80
2019-03-26T09:36:19.581Z,0.82
2019-03-26T09:38:50.001Z,0.78
2019-03-26T09:41:20.639Z,1.20
2019-03-26T09:43:51.042Z,6.00
2019-03-26T09:46:21.599Z,4.42
2019-03-26T09:48:51.929Z,3.67
2019-03-26T09:51:22.362Z,3.30
2019-03-26T09:53:53.010Z,5.35
2019-03-26T09:56:30.623Z,4.10
2019-03-26T09:58:57.002Z,3.00
2019-03-26T10:01:27.494Z,2.02
2019-03-26T10:03:58.124Z,2.62
2019-03-26T10:06:28.535Z,1.45
2019-03-26T10:08:59.103Z,1.98
2019-03-26T10:11:29.613Z,1.50
2019-03-26T10:14:00.609Z,1.80
2019-03-26T10:16:30.996Z,1.60
2019-03-26T10:19:01.587Z,1.00
2019-03-26T10:21:32.011Z,1.05
2019-03-26T10:24:02.318Z,1.67
2019-03-26T10:26:32.732Z,2.10
2019-03-26T10:29:18.768Z,1.90
2019-03-26T10:31:35.792Z,1.05
2019-03-26T10:34:06.382Z,1.25
2019-03-26T10:36:37.386Z,1.00
2019-03-26T10:39:08.630Z,1.50
2019-03-26T10:41:39.357Z,0.98
2019-03-26T10:44:09.784Z,1.70
2019-03-26T10:46:40.172Z,0.60
2019-03-26T10:49:10.535Z,0.68
2019-03-26T10:51:40.880Z,0.98
2019-03-26T10:54:11.383Z,1.27
2019-03-26T10:56:42.225Z,0.88
2019-03-26T10:59:12.548Z,0.85
2019-03-26T11:01:42.923Z,1.50
2019-03-26T11:04:13.407Z,1.27
2019-03-26T11:06:43.777Z,0.95
2019-03-26T11:09:23.297Z,1.80
2019-03-26T11:11:46.407Z,1.00
2019-03-26T11:14:16.842Z,1.40
2019-03-26T11:16:47.426Z,0.90
2019-03-26T11:19:17.901Z,1.07
2019-03-26T11:21:48.262Z,1.22
2019-03-26T11:24:18.583Z,1.07
2019-03-26T11:26:49.091Z,1.02
2019-03-26T11:29:20.285Z,1.20
2019-03-26T11:31:50.917Z,1.27
2019-03-26T11:34:21.453Z,0.98
2019-03-26T11:36:51.789Z,1.35
2019-03-26T11:39:32.118Z,1.20
2019-03-26T11:41:54.573Z,0.80
2019-03-26T11:44:24.992Z,0.80
2019-03-26T11:46:55.439Z,0.62
2019-03-26T11:49:26.073Z,1.57
2019-03-26T11:51:56.540Z,1.30
2019-03-26T11:54:27.051Z,0.60
2019-03-26T11:56:57.490Z,1.30
2019-03-26T11:59:28.084Z,0.95
2019-03-26T12:01:58.577Z,1.20
2019-03-26T12:04:29.874Z,1.40
2019-03-26T12:07:00.282Z,0.80
2019-03-26T12:09:30.759Z,0.62
2019-03-26T12:12:01.262Z,1.20
2019-03-26T12:14:31.631Z,0.82
2019-03-26T12:17:02.095Z,1.35
2019-03-26T12:19:32.520Z,1.15
2019-03-26T12:22:02.963Z,1.47
2019-03-26T12:24:33.316Z,0.85
2019-03-26T12:27:03.634Z,1.35
2019-03-26T12:29:34.020Z,1.55
2019-03-26T12:32:05.024Z,0.82
2019-03-26T12:34:35.486Z,0.82
2019-03-26T12:37:06.029Z,0.70
2019-03-26T12:39:36.474Z,1.65
2019-03-26T12:42:06.938Z,1.10
2019-03-26T12:44:37.464Z,1.00
2019-03-26T12:47:12.396Z,0.75
2019-03-26T12:49:42.852Z,1.10
2019-03-26T12:52:13.273Z,0.70
2019-03-26T12:54:44.338Z,1.12
2019-03-26T12:57:14.870Z,1.10
2019-03-26T12:59:45.329Z,0.57
2019-03-26T13:02:15.962Z,0.55
2019-03-26T13:04:46.390Z,0.50
2019-03-26T13:07:16.858Z,1.22
2019-03-26T13:09:47.323Z,0.90
2019-03-26T13:12:17.828Z,0.50
2019-03-26T13:14:48.533Z,0.98
2019-03-26T13:17:19.063Z,0.80
2019-03-26T13:19:49.525Z,0.65
2019-03-26T13:22:20.065Z,1.30
2019-03-26T13:24:50.723Z,1.15
2019-03-26T13:27:21.384Z,1.72
2019-03-26T13:29:51.784Z,0.98
2019-03-26T13:32:23.186Z,1.00
2019-03-26T13:34:53.642Z,1.55
2019-03-26T13:37:24.215Z,1.67
2019-03-26T13:39:54.762Z,1.52
2019-03-26T13:42:25.144Z,1.22
2019-03-26T13:44:55.420Z,1.07
2019-03-26T13:47:25.938Z,1.25
2019-03-26T13:49:56.334Z,0.82
2019-03-26T13:52:28.119Z,0.80
2019-03-26T13:54:59.980Z,1.30
2019-03-26T13:57:30.431Z,1.30
2019-03-26T14:00:00.912Z,1.02
2019-03-26T14:02:31.596Z,1.00
2019-03-26T14:05:02.004Z,0.93
2019-03-26T14:07:32.473Z,1.02
2019-03-26T14:10:03.044Z,0.95
2019-03-26T14:12:34.420Z,1.00
2019-03-26T14:15:05.227Z,1.20
2019-03-26T14:17:35.956Z,0.78
2019-03-26T14:20:07.306Z,0.88
2019-03-26T14:22:37.778Z,0.53
2019-03-26T14:25:08.700Z,1.00
2019-03-26T14:27:39.144Z,1.20
2019-03-26T14:30:10.887Z,1.12
2019-03-26T14:32:41.450Z,1.17
2019-03-26T14:35:12.159Z,1.37
2019-03-26T14:37:51.036Z,0.70
2019-03-26T14:40:14.957Z,1.55
2019-03-26T14:42:47.437Z,1.10
2019-03-26T14:45:17.937Z,0.95
2019-03-26T14:47:48.306Z,0.50
2019-03-26T14:50:20.354Z,0.85
2019-03-26T14:52:51.877Z,1.47
2019-03-26T14:55:22.248Z,1.25
2019-03-26T14:57:53.538Z,0.78
2019-03-26T15:00:24.021Z,1.00
2019-03-26T15:02:54.830Z,0.68
2019-03-26T15:05:25.309Z,0.90
2019-03-26T15:07:56.564Z,1.55
2019-03-26T15:10:28.209Z,1.07
2019-03-26T15:12:59.053Z,1.00
2019-03-26T15:15:30.706Z,0.40
2019-03-26T15:18:01.243Z,1.65
2019-03-26T15:20:31.951Z,1.45
2019-03-26T15:23:02.740Z,1.27
2019-03-26T15:25:33.161Z,1.20
2019-03-26T15:28:03.595Z,0.93
2019-03-26T15:30:34.262Z,1.60
2019-03-26T15:33:05.599Z,1.20
2019-03-26T15:35:36.165Z,1.30
2019-03-26T15:38:06.859Z,0.88
2019-03-26T15:40:37.259Z,0.80
2019-03-26T15:43:09.701Z,0.70
2019-03-26T15:45:41.838Z,0.90
2019-03-26T15:48:15.363Z,0.47
2019-03-26T15:50:47.989Z,1.20
2019-03-26T15:53:21.056Z,0.60
2019-03-26T15:55:52.918Z,0.90
2019-03-26T15:58:26.765Z,0.60
2019-03-26T16:00:59.896Z,0.80
2019-03-26T16:03:30.358Z,1.05
2019-03-26T16:06:01.125Z,0.45
2019-03-26T16:08:31.832Z,1.00
2019-03-26T16:11:02.307Z,0.70
2019-03-26T16:13:35.732Z,1.47
2019-03-26T16:16:07.956Z,1.27
2019-03-26T16:18:38.318Z,1.05
2019-03-26T16:21:08.740Z,0.90
2019-03-26T16:23:39.325Z,0.68
2019-03-26T16:26:10.017Z,0.62
2019-03-26T16:28:40.539Z,0.90
2019-03-26T16:31:10.904Z,0.70
2019-03-26T16:33:41.289Z,0.90
2019-03-26T16:36:12.695Z,1.20
2019-03-26T16:38:43.169Z,1.30
2019-03-26T16:41:14.067Z,0.78
2019-03-26T16:43:44.567Z,0.80
2019-03-26T16:46:15.252Z,1.20
2019-03-26T16:48:46.008Z,1.00
2019-03-26T16:51:16.368Z,1.07
2019-03-26T16:53:46.928Z,1.00
2019-03-26T16:56:17.897Z,0.50
2019-03-26T16:58:48.482Z,0.77
2019-03-26T17:01:19.042Z,1.27
2019-03-26T17:03:49.520Z,1.12
2019-03-26T17:06:21.016Z,0.85
2019-03-26T17:08:51.466Z,0.95
2019-03-26T17:11:22.029Z,0.70
2019-03-26T17:13:52.662Z,0.65
2019-03-26T17:16:23.306Z,0.90
2019-03-26T17:18:54.111Z,0.98
2019-03-26T17:21:24.666Z,0.50
2019-03-26T17:23:55.340Z,0.98
2019-03-26T17:26:26.149Z,1.00
2019-03-26T17:28:56.532Z,0.62
2019-03-26T17:31:26.906Z,0.70
2019-03-26T17:33:57.939Z,0.85
2019-03-26T17:36:28.654Z,0.68
2019-03-26T17:38:59.015Z,1.30
2019-03-26T17:41:29.831Z,1.05
2019-03-26T17:44:00.684Z,0.70
2019-03-26T17:46:31.083Z,0.70
2019-03-26T17:49:02.444Z,0.60
2019-03-26T17:51:32.826Z,0.60
2019-03-26T17:54:03.458Z,0.70
2019-03-26T17:56:33.869Z,0.50
2019-03-26T17:59:06.790Z,0.50
2019-03-26T18:01:37.136Z,0.55
2019-03-26T18:04:07.743Z,0.60
2019-03-26T18:06:38.097Z,0.50
2019-03-26T18:09:09.176Z,1.37
2019-03-26T18:11:39.834Z,0.68
2019-03-26T18:14:10.315Z,0.60
2019-03-26T18:16:40.814Z,0.57
2019-03-26T18:19:11.348Z,0.60
2019-03-26T18:21:51.560Z,0.60
2019-03-26T18:24:13.949Z,1.07
2019-03-26T18:26:44.335Z,0.70
2019-03-26T18:29:14.888Z,0.60
2019-03-26T18:31:45.186Z,0.65
2019-03-26T18:34:15.739Z,0.53
2019-03-26T18:36:46.048Z,0.93
2019-03-26T18:39:16.515Z,0.93
2019-03-26T18:41:46.973Z,1.17
2019-03-26T18:44:17.522Z,1.05
2019-03-26T18:46:48.050Z,0.70
2019-03-26T18:49:19.587Z,1.25
2019-03-26T18:51:50.153Z,1.55
2019-03-26T18:54:20.949Z,0.85
2019-03-26T18:56:51.438Z,1.55
2019-03-26T18:59:23.185Z,0.78
2019-03-26T19:01:53.585Z,1.27
2019-03-26T19:04:24.261Z,1.10
2019-03-26T19:06:54.747Z,1.07
2019-03-26T19:09:31.823Z,0.90
2019-03-26T19:12:02.462Z,1.00
2019-03-26T19:14:33.399Z,1.10
2019-03-26T19:17:03.846Z,0.70
2019-03-26T19:19:34.391Z,1.62
2019-03-26T19:22:06.586Z,0.90
2019-03-26T19:24:37.087Z,0.90
2019-03-26T19:27:07.588Z,1.02
2019-03-26T19:29:38.094Z,0.78
2019-03-26T19:32:08.612Z,0.90
2019-03-26T19:34:38.938Z,0.75
2019-03-26T19:37:09.396Z,0.65
2019-03-26T19:39:39.774Z,0.90
2019-03-26T19:42:10.348Z,1.60
2019-03-26T19:44:41.962Z,0.80
2019-03-26T19:47:13.046Z,1.12
2019-03-26T19:49:43.496Z,0.90
2019-03-26T19:52:13.950Z,1.33
2019-03-26T19:54:44.460Z,1.10
2019-03-26T19:57:14.806Z,1.00
2019-03-26T19:59:45.247Z,1.40
2019-03-26T20:02:15.682Z,1.00
2019-03-26T20:04:46.110Z,0.93
2019-03-26T20:07:16.625Z,2.62
2019-03-26T20:09:47.567Z,1.77
2019-03-26T20:12:17.979Z,1.35
2019-03-26T20:14:48.541Z,1.20
2019-03-26T20:17:19.061Z,1.20
2019-03-26T20:19:49.899Z,0.75
2019-03-26T20:22:20.259Z,1.12
2019-03-26T20:24:51.166Z,1.00
2019-03-26T20:27:21.772Z,1.22
2019-03-26T20:29:52.720Z,1.07
2019-03-26T20:32:23.175Z,1.00
2019-03-26T20:34:55.026Z,0.98
2019-03-26T20:37:25.593Z,1.40
2019-03-26T20:39:56.016Z,1.10
2019-03-26T20:42:26.419Z,1.02
2019-03-26T20:44:57.064Z,1.57
2019-03-26T20:47:27.589Z,1.10
2019-03-26T20:49:57.911Z,1.25
2019-03-26T20:52:28.386Z,1.50
2019-03-26T20:54:59.144Z,2.22
2019-03-26T20:57:30.472Z,1.50
2019-03-26T21:00:00.902Z,1.42
2019-03-26T21:02:31.222Z,1.15
2019-03-26T21:05:01.750Z,1.40
2019-03-26T21:07:32.158Z,1.00
2019-03-26T21:10:02.787Z,2.62
2019-03-26T21:12:33.293Z,1.65
2019-03-26T21:15:03.948Z,1.17
2019-03-26T21:17:34.616Z,1.25
2019-03-26T21:20:06.349Z,1.07
2019-03-26T21:22:36.760Z,1.17
2019-03-26T21:25:07.961Z,1.15
2019-03-26T21:27:38.366Z,1.22
2019-03-26T21:30:13.980Z,1.40
2019-03-26T21:32:43.622Z,1.15
2019-03-26T21:35:15.363Z,1.20
2019-03-26T21:37:45.810Z,0.90
2019-03-26T21:40:18.770Z,1.10
2019-03-26T21:42:49.125Z,0.82
2019-03-26T21:45:26.099Z,0.82
2019-03-26T21:47:58.422Z,1.62
2019-03-26T21:50:28.727Z,1.00
2019-03-26T21:52:59.025Z,1.82
2019-03-26T21:55:29.604Z,1.15
2019-03-26T21:58:00.437Z,0.70
2019-03-26T22:00:30.820Z,0.93
2019-03-26T22:03:01.791Z,1.12
2019-03-26T22:05:32.261Z,1.00
2019-03-26T22:08:02.791Z,1.95
2019-03-26T22:10:34.097Z,1.30
2019-03-26T22:13:07.578Z,1.40
2019-03-26T22:15:38.469Z,1.00
2019-03-26T22:18:09.187Z,1.05
2019-03-26T22:20:39.575Z,1.40
2019-03-26T22:23:09.956Z,1.32
2019-03-26T22:25:40.846Z,1.62
2019-03-26T22:28:11.603Z,0.93
2019-03-26T22:30:42.025Z,1.07
2019-03-26T22:33:12.353Z,1.00
2019-03-26T22:35:43.173Z,1.82
2019-03-26T22:38:13.817Z,1.00
2019-03-26T22:40:44.850Z,0.80
2019-03-26T22:43:15.436Z,1.20
2019-03-26T22:45:50.983Z,0.80
2019-03-26T22:48:21.511Z,1.07
2019-03-26T22:50:52.347Z,0.85
2019-03-26T22:53:24.096Z,1.00
2019-03-26T22:55:57.654Z,0.98
2019-03-26T22:58:30.180Z,1.00
2019-03-26T23:01:03.384Z,0.88
2019-03-26T23:03:33.647Z,0.90
2019-03-26T23:06:05.738Z,1.25
2019-03-26T23:08:37.295Z,1.30
2019-03-26T23:11:08.011Z,1.55
2019-03-26T23:13:38.515Z,1.00
2019-03-26T23:16:11.313Z,0.95
2019-03-26T23:18:41.838Z,2.08
2019-03-26T23:21:12.324Z,1.10
2019-03-26T23:23:42.739Z,1.07
2019-03-26T23:26:13.197Z,0.85
2019-03-26T23:28:43.587Z,0.95
2019-03-26T23:31:14.019Z,1.10
2019-03-26T23:33:44.565Z,0.93
2019-03-26T23:36:14.914Z,1.00
2019-03-26T23:38:45.403Z,1.02
2019-03-26T23:41:16.098Z,0.88
2019-03-26T23:43:46.627Z,1.12
2019-03-26T23:46:17.002Z,1.15
2019-03-26T23:48:47.656Z,0.78
2019-03-26T23:51:17.987Z,1.20
2019-03-26T23:53:48.357Z,1.75
2019-03-26T23:56:19.766Z,1.20
2019-03-26T23:58:50.081Z,1.45
